Weather at New Oakville Trafalgar Memorial Hospital Heliport

Public forecast

Using degrees Celsius for public forecast. Weather courtesy of forecast.io.

Closest aviation weather report (METAR) to New Oakville Trafalgar Memorial Hospital Heliport

Closest report is Toronto Lester B. Pearson International Airport, 14.9 nm (27.5 km) NNE.

2024/05/20 12:00 (retrieved 56 minutes ago)

CYYZ 201200Z 32006KT 15SM FEW065 BKN240 18/08 A2999 RMK SC1CS6 SC TR SLP157 DENSITY ALT 1000FT

Closest aviation forecast (TAF) to New Oakville Trafalgar Memorial Hospital Heliport

Closest forecast is Toronto Lester B. Pearson International Airport, 14.9 nm (27.5 km) NNE.

2024/05/20 12:42 (retrieved 14 minutes ago)

TAF CYYZ 201140Z 2012/2118 30005KT P6SM FEW050 BKN250 BECMG 2013/2015 16007KT FM202000 17010KT P6SM BKN060 FM202300 17005KT P6SM SCT060 BECMG 2101/2103 VRB03KT FM210500 VRB03KT P6SM BKN070 BECMG 2108/2110 17005KT FM211500 20012G22KT P6SM SCT050 FM211700 23015G25KT P6SM BKN060 RMK NXT FCST BY 201500Z